createdAt,value
2023-05-06T00:08:32.090Z,13.04
2023-05-06T00:18:32.044Z,12.96
2023-05-06T00:28:32.039Z,12.86
2023-05-06T00:38:32.052Z,12.79
2023-05-06T00:48:32.029Z,12.66
2023-05-06T00:58:32.094Z,12.50
2023-05-06T01:08:32.734Z,12.33
2023-05-06T01:18:33.352Z,12.16
2023-05-06T01:28:33.174Z,11.98
2023-05-06T01:38:33.225Z,11.86
2023-05-06T01:48:33.206Z,11.81
2023-05-06T01:58:33.183Z,11.76
2023-05-06T02:08:45.833Z,11.70
2023-05-06T02:18:46.428Z,11.63
2023-05-06T02:28:46.404Z,11.57
2023-05-06T02:38:46.259Z,11.48
2023-05-06T02:48:46.332Z,11.38
2023-05-06T02:58:46.310Z,11.28
2023-05-06T03:08:46.890Z,11.18
2023-05-06T03:18:47.453Z,11.11
2023-05-06T03:28:47.875Z,11.06
2023-05-06T03:38:48.627Z,11.03
2023-05-06T03:48:50.008Z,11.01
2023-05-06T03:58:50.824Z,11.00
2023-05-06T04:08:51.838Z,11.01
2023-05-06T04:18:52.783Z,11.08
2023-05-06T04:28:53.893Z,11.22
2023-05-06T04:38:54.879Z,11.41
2023-05-06T04:48:57.186Z,11.64
2023-05-06T04:58:57.909Z,11.89
2023-05-06T05:08:59.575Z,12.16
2023-05-06T05:19:03.507Z,12.47
2023-05-06T05:29:05.378Z,12.79
2023-05-06T05:39:07.168Z,13.08
2023-05-06T05:49:07.698Z,13.38
2023-05-06T05:59:08.784Z,13.97
2023-05-06T06:09:10.374Z,16.42
2023-05-06T06:19:11.096Z,21.04
2023-05-06T06:29:12.021Z,25.70
2023-05-06T06:39:12.554Z,29.94
2023-05-06T06:49:12.638Z,33.60
2023-05-06T06:59:12.560Z,36.54
2023-05-06T07:09:13.021Z,39.12
2023-05-06T07:19:13.654Z,41.17
2023-05-06T07:29:13.650Z,42.78
2023-05-06T07:39:13.629Z,44.43
2023-05-06T07:49:13.653Z,45.93
2023-05-06T07:59:13.741Z,47.31
2023-05-06T08:09:22.305Z,48.14
2023-05-06T08:19:15.743Z,48.51
2023-05-06T08:29:15.723Z,49.13
2023-05-06T08:39:15.899Z,49.90
2023-05-06T08:49:17.354Z,50.37
2023-05-06T08:59:17.770Z,50.43
2023-05-06T09:09:17.835Z,50.52
2023-05-06T09:19:17.915Z,50.95
2023-05-06T09:29:17.832Z,51.63
2023-05-06T09:39:17.933Z,52.02
2023-05-06T09:49:17.861Z,51.66
2023-05-06T09:59:18.123Z,49.46
2023-05-06T10:09:18.073Z,47.22
2023-05-06T10:19:17.928Z,46.60
2023-05-06T10:29:17.909Z,44.78
2023-05-06T10:39:17.992Z,42.14
2023-05-06T10:49:21.696Z,38.99
2023-05-06T10:59:22.034Z,36.44
2023-05-06T11:09:22.078Z,34.91
2023-05-06T11:19:22.075Z,34.00
2023-05-06T11:29:24.134Z,33.19
2023-05-06T11:39:24.042Z,32.66
2023-05-06T11:49:24.099Z,32.44
2023-05-06T11:59:24.090Z,32.36
2023-05-06T12:09:24.058Z,32.13
2023-05-06T12:19:24.136Z,31.73
2023-05-06T12:29:24.173Z,31.20
2023-05-06T12:39:24.152Z,30.44
2023-05-06T12:49:24.124Z,29.73
2023-05-06T12:59:24.218Z,29.09
2023-05-06T13:09:24.242Z,28.71
2023-05-06T13:19:32.370Z,28.81
2023-05-06T13:29:26.340Z,28.99
2023-05-06T13:39:26.312Z,29.11
2023-05-06T13:49:26.484Z,29.19
2023-05-06T13:59:26.274Z,29.11
2023-05-06T14:09:26.330Z,28.69
2023-05-06T14:19:26.626Z,28.16
2023-05-06T14:29:26.390Z,27.62
2023-05-06T14:39:26.299Z,26.99
2023-05-06T14:49:26.398Z,26.29
2023-05-06T14:59:26.478Z,25.27
2023-05-06T15:09:26.821Z,23.89
2023-05-06T15:19:27.536Z,22.60
2023-05-06T15:29:30.521Z,21.67
2023-05-06T15:39:30.345Z,21.03
2023-05-06T15:59:32.415Z,20.32
2023-05-06T16:09:32.476Z,20.15
2023-05-06T16:19:34.369Z,20.08
2023-05-06T16:29:34.589Z,20.11
2023-05-06T16:39:34.555Z,20.17
2023-05-06T16:49:34.479Z,20.15
2023-05-06T16:59:34.492Z,20.04
2023-05-06T17:09:34.528Z,19.92
2023-05-06T17:19:34.551Z,19.84
2023-05-06T17:29:34.463Z,19.84
2023-05-06T17:39:34.687Z,19.83
2023-05-06T17:49:34.657Z,19.74
2023-05-06T17:59:34.763Z,19.58
2023-05-06T18:09:35.045Z,19.37
2023-05-06T18:19:35.699Z,19.13
2023-05-06T18:29:35.681Z,18.87
2023-05-06T18:39:35.601Z,18.63
2023-05-06T18:49:36.009Z,18.39
2023-05-06T18:59:35.747Z,18.15
2023-05-06T19:09:36.676Z,17.93
2023-05-06T19:19:36.772Z,17.74
2023-05-06T19:29:36.833Z,17.58
2023-05-06T19:39:36.850Z,17.42
2023-05-06T19:49:36.837Z,17.29
2023-05-06T19:59:36.881Z,17.23
2023-05-06T20:09:36.779Z,17.20
2023-05-06T20:19:37.275Z,17.16
2023-05-06T20:29:37.979Z,17.13
2023-05-06T20:39:37.984Z,17.09
2023-05-06T20:49:37.803Z,17.03
2023-05-06T20:59:37.854Z,16.97
2023-05-06T21:09:37.907Z,16.90
2023-05-06T21:19:37.848Z,16.82
2023-05-06T21:29:37.880Z,16.76
2023-05-06T21:39:37.840Z,16.70
2023-05-06T21:49:37.887Z,16.63
2023-05-06T21:59:37.915Z,16.51
2023-05-06T22:09:38.025Z,16.36
2023-05-06T22:19:38.108Z,16.23
2023-05-06T22:29:39.048Z,16.13
2023-05-06T22:39:52.455Z,16.06
2023-05-06T22:49:52.976Z,16.04
2023-05-06T22:59:53.052Z,16.06
2023-05-06T23:09:53.016Z,16.09
2023-05-06T23:19:53.081Z,16.11
2023-05-06T23:29:53.092Z,16.14
2023-05-06T23:39:53.107Z,16.14
2023-05-06T23:49:53.059Z,16.12
2023-05-06T23:59:53.104Z,16.08
